This is the latest recevied weather packets stored in our database for station/object KN6KS. If no packets are shown the sender has not sent any weather packets the latest 10 day(s).
| Time | Temp. | Humidity | Pressure | Rain* | Wind** | Luminosity | Snow |
|---|---|---|---|---|---|---|---|
| 1777711966 | 17.78° C | 33% | 1013 hPa | 0 mm | - | 0 W/m² | - |
| 1777711664 | 19.44° C | 29% | 1013.1 hPa | 0 mm | - | 0 W/m² | - |
| 1777711364 | 20° C | 23% | 1013.1 hPa | 0 mm | - | 0 W/m² | - |
| 1777711061 | 20.56° C | 24% | 1013.2 hPa | 0 mm | - | 0 W/m² | - |
| 1777710757 | 20.56° C | 23% | 1013.4 hPa | 0 mm | - | 0 W/m² | - |
| 1777710455 | 20° C | 23% | 1013.4 hPa | 0 mm | - | 0 W/m² | - |
| 1777710151 | 20.56° C | 22% | 1013.2 hPa | 0 mm | - | 0 W/m² | - |
| 1777709849 | 21.11° C | 22% | 1013.4 hPa | 0 mm | - | 0 W/m² | - |
| 1777709546 | 21.11° C | 20% | 1013.3 hPa | 0 mm | - | 0 W/m² | - |
| 1777709243 | 22.22° C | 20% | 1013.4 hPa | 0 mm | - | 0 W/m² | - |
| 1777708941 | 22.22° C | 19% | 1013.3 hPa | 0 mm | - | 0 W/m² | - |
| 1777708638 | 21.67° C | 20% | 1013.1 hPa | 0 mm | - | 0 W/m² | - |
| 1777708336 | 22.22° C | 20% | 1013.1 hPa | 0 mm | - | 0 W/m² | - |
| 1777708033 | 22.22° C | 20% | 1013.2 hPa | 0 mm | - | 0 W/m² | - |
| 1777707731 | 22.22° C | 20% | 1013.2 hPa | 0 mm | - | 0 W/m² | - |
| 1777707426 | 22.22° C | 20% | 1013.2 hPa | 0 mm | - | 0 W/m² | - |
| 1777707122 | 22.22° C | 19% | 1013.1 hPa | 0 mm | - | 0 W/m² | - |
| 1777706820 | 22.78° C | 19% | 1013.1 hPa | 0 mm | - | 0 W/m² | - |
| 1777706518 | 22.22° C | 20% | 1013.4 hPa | 0 mm | - | 0 W/m² | - |
| 1777706215 | 22.78° C | 20% | 1013.2 hPa | 0 mm | - | 0 W/m² | - |
| 1777705914 | 22.78° C | 20% | 1013.3 hPa | 0 mm | - | 0 W/m² | - |
| 1777705611 | 22.78° C | 19% | 1013.1 hPa | 0 mm | - | 0 W/m² | - |
| 1777705309 | 22.78° C | 18% | 1013 hPa | 0 mm | - | 0 W/m² | - |
| 1777705008 | 23.33° C | 18% | 1013.2 hPa | 0 mm | - | 0 W/m² | - |
| 1777704704 | 22.22° C | 20% | 1013.2 hPa | 0 mm | - | 0 W/m² | - |
* Rain latest hour (hover to see other rain measurements)
** Current wind speed in m/s (hover to see current wind gust speed)